createdAt,value
2018-01-21T20:29:03.524Z,89.77
2018-01-21T20:30:04.324Z,89.67
2018-01-21T20:32:47.898Z,88.35
2018-01-21T20:33:46.828Z,88.63
2018-01-21T20:36:31.683Z,87.97
2018-01-21T20:37:32.436Z,87.97
2018-01-21T20:40:15.969Z,88.06
2018-01-21T20:41:15.818Z,88.06
2018-01-21T20:44:01.468Z,87.97
2018-01-21T20:45:00.393Z,87.97
2018-01-21T20:47:45.574Z,88.35
2018-01-21T20:48:44.918Z,88.63
2018-01-21T20:51:28.564Z,87.97
2018-01-21T20:52:29.315Z,87.87
2018-01-21T20:55:13.152Z,87.87
2018-01-21T20:56:13.048Z,87.97
2018-01-21T20:58:57.212Z,88.06
2018-01-21T20:59:57.380Z,88.06
2018-01-21T21:02:41.531Z,87.77
2018-01-21T21:03:42.895Z,87.68
2018-01-21T21:06:27.228Z,87.21
2018-01-21T21:07:27.722Z,87.12
2018-01-21T21:10:10.784Z,87.30
2018-01-21T21:11:09.773Z,87.21
2018-01-21T21:13:54.218Z,87.12
2018-01-21T21:14:54.092Z,87.30
2018-01-21T21:17:38.957Z,86.64
2018-01-21T21:18:38.809Z,86.55
2018-01-21T21:20:35.200Z,86.45
2018-01-21T21:21:35.175Z,86.07
2018-01-21T21:24:18.551Z,86.07
2018-01-21T21:25:18.194Z,86.16
2018-01-21T21:28:03.009Z,86.64
2018-01-21T21:29:02.936Z,86.64
2018-01-21T21:31:47.103Z,86.35
2018-01-21T21:32:47.064Z,86.83
2018-01-21T21:34:42.823Z,86.64
2018-01-21T21:36:30.882Z,86.74
2018-01-21T21:39:16.185Z,86.45
2018-01-21T21:40:16.211Z,86.35
2018-01-21T21:43:00.226Z,86.55
2018-01-21T21:44:00.497Z,86.07
2018-01-21T21:46:44.608Z,86.74
2018-01-21T21:47:44.482Z,86.64
2018-01-21T21:50:28.467Z,86.83
2018-01-21T21:51:28.425Z,87.30
2018-01-21T21:54:13.810Z,87.12
2018-01-21T21:55:13.252Z,87.30
2018-01-21T21:57:56.170Z,87.97
2018-01-21T21:58:56.100Z,87.87
2018-01-21T22:01:39.494Z,88.87
2018-01-21T22:02:39.452Z,89.15
2018-01-21T22:05:24.196Z,89.29
2018-01-21T22:06:23.882Z,89.39
2018-01-21T22:09:07.245Z,89.86
2018-01-21T22:10:07.164Z,90.15
2018-01-21T22:12:51.959Z,91.57
2018-01-21T22:13:51.780Z,91.57
2018-01-21T22:16:34.909Z,91.00
2018-01-21T22:17:35.252Z,91.47
2018-01-21T22:20:19.580Z,92.42
2018-01-21T22:21:19.569Z,92.80
2018-01-21T22:24:04.071Z,93.18
2018-01-21T22:25:02.771Z,93.75
2018-01-21T22:27:46.657Z,93.08
2018-01-21T22:28:46.236Z,93.37
2018-01-21T22:31:31.238Z,93.46
2018-01-21T22:32:29.612Z,93.94
2018-01-21T22:35:14.439Z,94.70
2018-01-21T22:36:14.135Z,94.23
2018-01-21T22:38:57.698Z,95.12
2018-01-21T22:39:57.272Z,95.17
2018-01-21T22:40:57.274Z,94.89
2018-01-21T22:41:57.803Z,94.51
2018-01-21T22:42:59.893Z,94.37
2018-01-21T22:43:59.010Z,94.27
2018-01-21T22:44:58.697Z,94.51
2018-01-21T22:45:57.282Z,95.12
2018-01-21T22:46:57.598Z,94.84
2018-01-21T22:47:57.206Z,94.89
2018-01-21T22:48:57.197Z,95.45
2018-01-21T22:49:57.626Z,95.17
2018-01-21T22:50:57.186Z,95.03
2018-01-21T22:51:57.156Z,94.65
2018-01-21T22:52:57.155Z,94.84
2018-01-21T22:53:57.194Z,95.12
2018-01-21T22:54:57.130Z,95.12
2018-01-21T22:55:57.152Z,95.12
2018-01-21T22:56:57.193Z,95.12
2018-01-21T22:57:57.087Z,95.41
2018-01-21T22:58:57.097Z,95.31
2018-01-21T22:59:57.075Z,95.98
2018-01-21T23:00:57.062Z,96.07
2018-01-21T23:01:57.052Z,95.98
2018-01-21T23:02:57.042Z,96.45
2018-01-21T23:03:57.046Z,96.92
2018-01-21T23:04:57.024Z,96.92
2018-01-21T23:05:57.022Z,96.55
2018-01-21T23:06:57.011Z,96.83
2018-01-21T23:07:57.006Z,96.64
2018-01-21T23:08:56.990Z,96.73
2018-01-21T23:09:56.981Z,96.64
2018-01-21T23:10:56.971Z,97.30
2018-01-21T23:11:56.955Z,96.83
2018-01-21T23:12:56.956Z,96.64
2018-01-21T23:13:56.950Z,96.92
2018-01-21T23:14:56.926Z,96.64
2018-01-21T23:15:56.919Z,97.30
2018-01-21T23:16:56.900Z,97.59
2018-01-21T23:17:56.894Z,97.11
2018-01-21T23:18:56.886Z,97.21
2018-01-21T23:19:56.877Z,96.83
2018-01-21T23:20:56.867Z,97.40
2018-01-21T23:21:56.849Z,97.11
2018-01-21T23:22:56.858Z,96.73
2018-01-21T23:23:56.829Z,96.83
2018-01-21T23:24:56.839Z,96.55
2018-01-21T23:25:56.817Z,96.83
2018-01-21T23:26:56.809Z,96.92
2018-01-21T23:27:56.800Z,97.11
2018-01-21T23:28:56.801Z,96.73
2018-01-21T23:29:56.786Z,96.83
2018-01-21T23:30:56.820Z,96.83
2018-01-21T23:31:56.758Z,97.21
2018-01-21T23:32:56.765Z,97.40
2018-01-21T23:33:56.739Z,97.21
2018-01-21T23:34:08.744Z,97.02
2018-01-21T23:35:56.735Z,97.68
2018-01-21T23:36:56.698Z,96.83
2018-01-21T23:37:56.698Z,97.21
2018-01-21T23:38:56.684Z,97.40
2018-01-21T23:39:56.683Z,97.11
2018-01-21T23:40:56.665Z,97.68
2018-01-21T23:41:56.647Z,97.49
2018-01-21T23:42:56.653Z,97.59
2018-01-21T23:43:56.641Z,98.35
2018-01-21T23:44:56.634Z,98.35
2018-01-21T23:45:56.617Z,98.44
2018-01-21T23:46:56.607Z,97.87
2018-01-21T23:47:56.606Z,98.16
2018-01-21T23:48:56.582Z,98.06
2018-01-21T23:49:56.579Z,97.68
2018-01-21T23:50:56.563Z,97.49
2018-01-21T23:51:56.555Z,97.97
2018-01-21T23:52:56.547Z,97.40
2018-01-21T23:53:56.534Z,97.68
2018-01-21T23:54:56.526Z,97.68
2018-01-21T23:55:56.524Z,98.06
2018-01-21T23:56:56.506Z,98.06
2018-01-21T23:57:56.495Z,97.87
2018-01-21T23:58:56.488Z,98.16
2018-01-21T23:59:56.479Z,97.40
